createdAt,value
2022-10-28T00:01:24.545Z,47.17
2022-10-28T00:03:56.954Z,46.40
2022-10-28T00:06:34.536Z,50.60
2022-10-28T00:09:06.978Z,47.92
2022-10-28T00:11:39.433Z,46.75
2022-10-28T00:14:08.548Z,47.83
2022-10-28T00:16:37.934Z,49.38
2022-10-28T00:19:10.280Z,47.78
2022-10-28T00:21:40.425Z,47.03
2022-10-28T00:24:10.312Z,52.78
2022-10-28T00:26:42.261Z,51.33
2022-10-28T00:29:16.095Z,51.90
2022-10-28T00:31:44.444Z,54.67
2022-10-28T00:34:15.739Z,53.38
2022-10-28T00:36:46.581Z,50.80
2022-10-28T00:39:21.057Z,53.95
2022-10-28T00:41:52.826Z,54.45
2022-10-28T00:44:53.760Z,45.75
2022-10-28T00:48:11.984Z,51.80
2022-10-28T00:50:53.958Z,51.95
2022-10-28T00:53:29.568Z,53.72
2022-10-28T00:56:00.374Z,55.97
2022-10-28T00:58:28.585Z,55.00
2022-10-28T01:00:56.357Z,55.03
2022-10-28T01:03:25.069Z,52.92
2022-10-28T01:08:20.703Z,55.92
2022-10-28T01:11:17.380Z,58.27
2022-10-28T01:14:05.327Z,56.22
2022-10-28T01:16:53.943Z,61.13
2022-10-28T01:20:10.493Z,58.15
2022-10-28T01:23:13.095Z,58.47
2022-10-28T01:25:52.239Z,55.30
2022-10-28T01:29:05.441Z,57.08
2022-10-28T01:32:41.402Z,58.95
2022-10-28T01:35:27.660Z,58.58
2022-10-28T01:38:32.769Z,58.83
2022-10-28T01:41:34.227Z,53.65
2022-10-28T01:44:16.354Z,48.97
2022-10-28T01:47:20.215Z,48.67
2022-10-28T01:50:22.976Z,47.53
2022-10-28T01:52:56.104Z,43.13
2022-10-28T01:55:33.894Z,41.15
2022-10-28T01:58:04.356Z,41.33
2022-10-28T02:00:34.974Z,41.30
2022-10-28T02:03:03.115Z,42.78
2022-10-28T02:05:41.267Z,42.85
2022-10-28T02:08:44.554Z,42.58
2022-10-28T02:11:29.651Z,41.72
2022-10-28T02:14:27.864Z,41.55
2022-10-28T02:17:05.373Z,41.90
2022-10-28T02:19:49.438Z,42.63
2022-10-28T02:22:51.512Z,44.80
2022-10-28T02:25:30.583Z,41.45
2022-10-28T02:31:07.694Z,48.40
2022-10-28T02:33:39.669Z,43.83
2022-10-28T02:36:18.119Z,43.05
2022-10-28T02:38:50.627Z,44.33
2022-10-28T02:41:43.766Z,44.92
2022-10-28T02:44:18.107Z,42.25
2022-10-28T02:46:50.476Z,43.33
2022-10-28T02:49:17.823Z,45.10
2022-10-28T02:51:59.861Z,45.75
2022-10-28T02:54:45.559Z,47.03
2022-10-28T02:57:21.496Z,43.15
2022-10-28T03:00:01.522Z,40.80
2022-10-28T03:02:29.107Z,42.58
2022-10-28T03:04:56.735Z,41.95
2022-10-28T03:07:24.228Z,41.67
2022-10-28T03:09:51.587Z,41.13
2022-10-28T03:12:20.462Z,40.35
2022-10-28T03:14:47.829Z,42.85
2022-10-28T03:17:15.379Z,36.97
2022-10-28T03:19:42.971Z,41.63
2022-10-28T03:22:10.367Z,40.40
2022-10-28T03:24:39.961Z,39.92
2022-10-28T03:27:07.210Z,40.95
2022-10-28T03:29:34.438Z,39.90
2022-10-28T03:32:01.773Z,38.03
2022-10-28T03:34:29.229Z,36.55
2022-10-28T03:36:56.667Z,38.25
2022-10-28T03:39:24.560Z,40.55
2022-10-28T03:41:51.942Z,38.58
2022-10-28T03:44:19.369Z,41.10
2022-10-28T03:46:46.920Z,37.77
2022-10-28T03:49:14.343Z,40.22
2022-10-28T03:51:42.301Z,37.67
2022-10-28T03:54:09.696Z,39.88
2022-10-28T03:56:39.223Z,38.95
2022-10-28T03:59:09.805Z,37.28
2022-10-28T04:01:37.214Z,39.30
2022-10-28T04:04:04.793Z,38.60
2022-10-28T04:06:33.343Z,36.92
2022-10-28T04:09:00.656Z,38.60
2022-10-28T04:11:27.875Z,34.05
2022-10-28T04:13:55.175Z,37.15
2022-10-28T04:16:22.396Z,32.92
2022-10-28T04:18:49.650Z,36.13
2022-10-28T04:21:16.986Z,36.28
2022-10-28T04:23:44.288Z,35.00
2022-10-28T04:26:11.877Z,35.20
2022-10-28T04:28:39.206Z,35.90
2022-10-28T04:31:06.590Z,33.28
2022-10-28T04:33:33.945Z,36.47
2022-10-28T04:36:01.417Z,36.35
2022-10-28T04:38:28.823Z,35.38
2022-10-28T04:40:57.114Z,35.83
2022-10-28T04:43:25.374Z,36.03
2022-10-28T04:45:52.612Z,34.45
2022-10-28T04:48:20.334Z,34.25
2022-10-28T04:50:51.568Z,36.22
2022-10-28T04:53:18.883Z,35.42
2022-10-28T04:55:46.161Z,33.63
2022-10-28T04:58:13.438Z,34.78
2022-10-28T05:00:40.846Z,35.45
2022-10-28T05:03:08.127Z,33.78
2022-10-28T05:05:36.095Z,33.70
2022-10-28T05:08:03.661Z,30.60
2022-10-28T05:10:31.519Z,31.15
2022-10-28T05:13:00.006Z,31.17
2022-10-28T05:17:55.243Z,28.23
2022-10-28T05:20:23.557Z,29.23
2022-10-28T05:22:55.130Z,28.48
2022-10-28T05:25:23.946Z,32.17
2022-10-28T05:30:19.959Z,31.75
2022-10-28T05:35:18.946Z,33.10
2022-10-28T05:37:47.433Z,32.58
2022-10-28T05:40:15.459Z,31.17
2022-10-28T05:42:43.760Z,31.98
2022-10-28T05:45:12.271Z,32.88
2022-10-28T05:50:19.125Z,31.63
2022-10-28T05:52:55.723Z,33.30
2022-10-28T05:55:28.304Z,35.47
2022-10-28T05:57:56.593Z,38.00
2022-10-28T06:00:26.526Z,37.28
2022-10-28T06:03:01.251Z,37.70
2022-10-28T06:05:30.166Z,37.20
2022-10-28T06:07:57.473Z,37.42
2022-10-28T06:10:33.894Z,39.28
2022-10-28T06:12:59.930Z,40.85
2022-10-28T06:15:27.287Z,38.75
2022-10-28T06:17:54.507Z,35.78
2022-10-28T06:20:22.220Z,35.60
2022-10-28T06:22:53.286Z,38.00
2022-10-28T06:25:23.171Z,37.67
2022-10-28T06:27:57.865Z,41.03
2022-10-28T06:30:26.638Z,37.85
2022-10-28T06:32:57.945Z,39.15
2022-10-28T06:35:26.044Z,39.13
2022-10-28T06:37:57.170Z,38.47
2022-10-28T06:40:25.560Z,39.95
2022-10-28T06:43:02.285Z,41.15
2022-10-28T06:45:33.164Z,40.17
2022-10-28T06:48:05.890Z,39.45
2022-10-28T06:50:36.393Z,40.92
2022-10-28T06:53:04.365Z,40.35
2022-10-28T06:55:32.213Z,39.13
2022-10-28T06:58:02.094Z,39.20
2022-10-28T07:03:03.547Z,42.60
2022-10-28T07:05:38.003Z,41.90
2022-10-28T07:08:06.081Z,41.85
2022-10-28T07:10:34.931Z,41.92
2022-10-28T07:13:02.327Z,43.05
2022-10-28T07:15:29.731Z,42.13
2022-10-28T07:17:59.042Z,38.00
2022-10-28T07:20:29.364Z,38.88
2022-10-28T07:23:05.681Z,38.78
2022-10-28T07:25:33.112Z,38.60
2022-10-28T07:28:01.231Z,37.65
2022-10-28T07:30:29.846Z,38.85
2022-10-28T07:35:28.967Z,37.08
2022-10-28T07:37:56.793Z,39.08
2022-10-28T07:40:25.933Z,39.88
2022-10-28T07:42:53.541Z,38.38
2022-10-28T07:45:21.345Z,38.45
2022-10-28T07:47:48.634Z,35.80
2022-10-28T07:50:16.095Z,33.33
2022-10-28T07:52:44.420Z,33.30
2022-10-28T07:55:12.730Z,33.13
2022-10-28T07:57:43.088Z,32.15
2022-10-28T08:00:11.372Z,33.22
2022-10-28T08:02:39.485Z,34.00
2022-10-28T08:05:07.529Z,32.53
2022-10-28T08:07:37.805Z,34.35
2022-10-28T08:10:07.757Z,33.90
2022-10-28T08:12:35.101Z,34.45
2022-10-28T08:15:02.943Z,30.58
2022-10-28T08:17:30.396Z,30.63
2022-10-28T08:19:57.930Z,32.77
2022-10-28T08:22:25.583Z,32.38
2022-10-28T08:24:52.918Z,29.40
2022-10-28T08:27:20.357Z,29.83
2022-10-28T08:29:47.642Z,30.65
2022-10-28T08:32:14.993Z,31.55
2022-10-28T08:34:43.675Z,29.17
2022-10-28T08:37:11.495Z,29.17
2022-10-28T08:39:38.910Z,30.77
2022-10-28T08:42:24.111Z,27.95
2022-10-28T08:45:03.703Z,26.75
2022-10-28T08:47:45.779Z,28.33
2022-10-28T08:50:18.436Z,27.13
2022-10-28T08:53:05.719Z,25.75
2022-10-28T08:55:43.399Z,26.77
2022-10-28T08:58:26.725Z,26.95
2022-10-28T09:00:59.572Z,26.33
2022-10-28T09:03:34.419Z,28.90
2022-10-28T09:06:07.809Z,33.75
2022-10-28T09:08:47.029Z,30.05
2022-10-28T09:12:16.269Z,27.33
2022-10-28T09:15:26.335Z,25.85
2022-10-28T09:18:18.687Z,26.35
2022-10-28T09:20:56.476Z,25.45
2022-10-28T09:23:41.132Z,24.90
2022-10-28T09:26:42.213Z,22.92
2022-10-28T09:29:46.952Z,24.50
2022-10-28T09:32:42.434Z,21.95
2022-10-28T09:35:17.371Z,22.58
2022-10-28T09:38:31.763Z,21.08
2022-10-28T09:41:20.890Z,19.75
2022-10-28T09:44:20.425Z,22.55
2022-10-28T09:46:52.784Z,27.02
2022-10-28T09:49:30.219Z,24.65
2022-10-28T09:52:12.814Z,22.45
2022-10-28T09:54:52.472Z,26.08
2022-10-28T09:57:29.101Z,24.88
2022-10-28T09:59:56.484Z,22.25
2022-10-28T10:02:36.460Z,21.42
2022-10-28T10:05:04.414Z,22.67
2022-10-28T10:07:59.315Z,24.08
2022-10-28T10:10:34.574Z,26.13
2022-10-28T10:13:05.454Z,26.90
2022-10-28T10:15:42.712Z,25.30
2022-10-28T10:18:23.675Z,25.83
2022-10-28T10:21:01.368Z,26.67
2022-10-28T10:26:14.380Z,25.83
2022-10-28T10:28:47.877Z,22.02
2022-10-28T10:31:29.827Z,21.13
2022-10-28T10:34:00.399Z,20.42
2022-10-28T10:36:32.801Z,22.80
2022-10-28T10:39:03.362Z,22.42
2022-10-28T10:41:39.001Z,18.30
2022-10-28T10:44:21.599Z,19.92
2022-10-28T10:47:05.777Z,19.00
2022-10-28T10:49:37.726Z,19.98
2022-10-28T10:52:07.973Z,20.35
2022-10-28T10:54:38.618Z,19.42
2022-10-28T10:57:22.189Z,23.42
2022-10-28T10:59:55.358Z,24.88
2022-10-28T11:02:38.127Z,25.23
2022-10-28T11:05:10.980Z,23.17
2022-10-28T11:07:47.870Z,22.73
2022-10-28T11:10:31.087Z,23.38
2022-10-28T11:13:05.985Z,23.85
2022-10-28T11:15:33.984Z,23.52
2022-10-28T11:18:11.600Z,21.63
2022-10-28T11:20:49.551Z,21.88
2022-10-28T11:23:45.081Z,19.75
2022-10-28T11:26:20.557Z,18.88
2022-10-28T11:28:53.540Z,19.10
2022-10-28T11:31:54.831Z,17.80
2022-10-28T11:34:50.120Z,18.52
2022-10-28T11:37:44.965Z,19.95
2022-10-28T11:40:32.325Z,19.55
2022-10-28T11:44:00.925Z,20.20
2022-10-28T11:46:50.530Z,19.80
2022-10-28T11:49:35.873Z,18.90
2022-10-28T11:52:25.523Z,19.23
2022-10-28T11:55:17.056Z,18.73
2022-10-28T12:01:07.706Z,20.65
2022-10-28T12:04:01.479Z,19.13
2022-10-28T12:07:10.049Z,19.08
2022-10-28T12:10:03.462Z,20.38
2022-10-28T12:12:51.405Z,19.10
2022-10-28T12:16:04.086Z,18.55
2022-10-28T12:18:57.196Z,17.98
2022-10-28T12:21:36.438Z,18.13
2022-10-28T12:24:12.722Z,21.05
2022-10-28T12:27:01.475Z,19.23
2022-10-28T12:29:37.457Z,20.05
2022-10-28T12:32:11.698Z,20.67
2022-10-28T12:34:47.833Z,22.05
2022-10-28T12:37:23.963Z,21.83
2022-10-28T12:40:18.610Z,21.88
2022-10-28T12:43:27.218Z,20.60
2022-10-28T12:45:57.550Z,21.90
2022-10-28T12:48:45.742Z,21.85
2022-10-28T12:51:31.294Z,21.85
2022-10-28T12:54:28.677Z,20.58
2022-10-28T12:57:19.548Z,21.50
2022-10-28T13:00:16.035Z,22.52
2022-10-28T13:03:14.891Z,22.30
2022-10-28T13:05:52.504Z,22.92
2022-10-28T13:09:03.148Z,21.17
2022-10-28T13:12:32.796Z,22.17
2022-10-28T13:15:36.285Z,22.25
2022-10-28T13:18:34.728Z,22.98
2022-10-28T13:21:40.306Z,22.73
2022-10-28T13:24:26.283Z,22.77
2022-10-28T13:26:55.581Z,23.40
2022-10-28T13:29:41.232Z,24.35
2022-10-28T13:32:39.032Z,25.10
2022-10-28T13:35:26.701Z,25.52
2022-10-28T13:37:58.376Z,23.33
2022-10-28T13:40:31.968Z,24.08
2022-10-28T13:43:02.672Z,23.17
2022-10-28T13:45:55.114Z,22.98
2022-10-28T13:48:43.203Z,23.48
2022-10-28T13:51:10.721Z,24.75
2022-10-28T13:53:54.176Z,24.70
2022-10-28T13:56:33.655Z,24.67
2022-10-28T13:59:15.842Z,24.77
2022-10-28T14:02:32.596Z,26.08
2022-10-28T14:05:07.347Z,25.30
2022-10-28T14:07:51.897Z,24.98
2022-10-28T14:10:35.021Z,25.63
2022-10-28T14:13:20.756Z,25.27
2022-10-28T14:15:50.230Z,25.52
2022-10-28T14:21:05.256Z,27.42
2022-10-28T14:23:38.007Z,25.90
2022-10-28T14:26:06.356Z,26.30
2022-10-28T14:31:11.448Z,26.02
2022-10-28T14:33:53.871Z,26.10
2022-10-28T14:36:49.033Z,26.20
2022-10-28T14:39:53.306Z,26.50
2022-10-28T14:42:58.513Z,25.88
2022-10-28T14:46:00.872Z,27.30
2022-10-28T14:48:52.493Z,24.00
2022-10-28T14:51:41.926Z,24.27
2022-10-28T14:54:17.615Z,22.65
2022-10-28T14:56:47.129Z,22.70
2022-10-28T14:59:46.965Z,23.88
2022-10-28T15:02:23.443Z,22.52
2022-10-28T15:05:22.113Z,23.83
2022-10-28T15:07:50.421Z,24.27
2022-10-28T15:10:28.569Z,27.08
2022-10-28T15:12:58.784Z,26.55
2022-10-28T15:15:30.470Z,27.85
2022-10-28T15:18:00.947Z,27.98
2022-10-28T15:20:35.737Z,28.80
2022-10-28T15:23:23.563Z,28.58
2022-10-28T15:26:26.523Z,27.55
2022-10-28T15:28:55.901Z,27.92
2022-10-28T15:31:23.303Z,26.73
2022-10-28T15:33:50.660Z,26.30
2022-10-28T15:36:23.564Z,26.38
2022-10-28T15:38:52.847Z,27.05
2022-10-28T15:41:23.189Z,27.75
2022-10-28T15:44:03.122Z,26.40
2022-10-28T15:46:33.651Z,26.63
2022-10-28T15:49:02.993Z,27.15
2022-10-28T15:51:30.318Z,27.45
2022-10-28T15:54:28.691Z,28.52
2022-10-28T15:57:00.119Z,25.70
2022-10-28T15:59:27.712Z,28.13
2022-10-28T16:01:58.122Z,30.17
2022-10-28T16:04:25.706Z,26.92
2022-10-28T16:07:06.709Z,28.83
2022-10-28T16:09:52.635Z,28.85
2022-10-28T16:12:26.584Z,29.58
2022-10-28T16:14:58.505Z,29.83
2022-10-28T16:17:30.318Z,30.58
2022-10-28T16:20:01.569Z,31.05
2022-10-28T16:22:31.287Z,31.70
2022-10-28T16:24:58.623Z,31.08
2022-10-28T16:27:32.553Z,30.33
2022-10-28T16:29:59.888Z,30.90
2022-10-28T16:32:51.463Z,31.17
2022-10-28T16:35:22.884Z,31.95
2022-10-28T16:37:55.480Z,36.65
2022-10-28T16:43:20.095Z,27.27
2022-10-28T16:45:49.649Z,26.92
2022-10-28T16:48:20.729Z,25.83
2022-10-28T16:50:56.684Z,28.23
2022-10-28T16:53:24.209Z,26.73
2022-10-28T16:55:51.768Z,28.02
2022-10-28T16:58:23.068Z,27.63
2022-10-28T17:00:54.173Z,27.10
2022-10-28T17:03:22.055Z,27.15
2022-10-28T17:05:50.405Z,28.13
2022-10-28T17:08:30.713Z,28.20
2022-10-28T17:11:05.900Z,27.45
2022-10-28T17:13:35.522Z,25.52
2022-10-28T17:16:02.886Z,25.88
2022-10-28T17:18:30.241Z,25.35
2022-10-28T17:21:02.504Z,24.83
2022-10-28T17:23:30.799Z,25.40
2022-10-28T17:26:03.470Z,25.27
2022-10-28T17:28:30.909Z,25.90
2022-10-28T17:31:07.421Z,25.40
2022-10-28T17:33:35.561Z,25.40
2022-10-28T17:36:08.753Z,20.92
2022-10-28T17:38:36.207Z,21.00
2022-10-28T17:41:03.613Z,23.48
2022-10-28T17:43:30.909Z,25.15
2022-10-28T17:46:09.765Z,24.25
2022-10-28T17:48:37.277Z,25.15
2022-10-28T17:51:07.205Z,22.08
2022-10-28T17:53:37.562Z,23.15
2022-10-28T17:56:07.487Z,23.13
2022-10-28T17:58:38.190Z,23.27
2022-10-28T18:01:12.853Z,23.52
2022-10-28T18:03:40.223Z,25.13
2022-10-28T18:06:13.570Z,28.55
2022-10-28T18:08:43.551Z,25.52
2022-10-28T18:11:13.991Z,24.98
2022-10-28T18:13:55.426Z,24.95
2022-10-28T18:16:27.907Z,24.90
2022-10-28T18:19:02.665Z,25.63
2022-10-28T18:21:30.581Z,26.20
2022-10-28T18:24:04.888Z,24.40
2022-10-28T18:26:37.941Z,24.02
2022-10-28T18:29:10.776Z,25.80
2022-10-28T18:31:40.590Z,25.73
2022-10-28T18:34:08.344Z,26.35
2022-10-28T18:36:36.218Z,26.90
2022-10-28T18:39:06.971Z,25.55
2022-10-28T18:41:45.670Z,25.95
2022-10-28T18:44:20.030Z,31.10
2022-10-28T18:46:47.441Z,31.05
2022-10-28T18:49:14.731Z,26.80
2022-10-28T18:51:42.053Z,28.02
2022-10-28T18:54:09.439Z,29.50
2022-10-28T18:56:37.217Z,32.08
2022-10-28T18:59:05.151Z,31.30
2022-10-28T19:01:33.186Z,28.75
2022-10-28T19:04:04.384Z,28.83
2022-10-28T19:06:42.468Z,30.40
2022-10-28T19:09:09.848Z,30.58
2022-10-28T19:11:37.161Z,30.23
2022-10-28T19:14:06.796Z,28.40
2022-10-28T19:16:35.256Z,32.90
2022-10-28T19:21:33.385Z,31.95
2022-10-28T19:24:01.228Z,31.48
2022-10-28T19:26:28.822Z,32.10
2022-10-28T19:28:57.229Z,32.03
2022-10-28T19:31:26.992Z,32.50
2022-10-28T19:33:55.220Z,32.75
2022-10-28T19:36:29.580Z,33.00
2022-10-28T19:38:58.177Z,33.47
2022-10-28T19:41:30.492Z,34.47
2022-10-28T19:44:03.542Z,35.67
2022-10-28T19:46:34.651Z,36.17
2022-10-28T19:49:05.767Z,38.50
2022-10-28T19:51:41.986Z,41.88
2022-10-28T19:54:16.084Z,40.00
2022-10-28T19:56:45.267Z,41.22
2022-10-28T19:59:12.624Z,42.05
2022-10-28T20:01:41.182Z,43.20
2022-10-28T20:04:10.235Z,44.55
2022-10-28T20:06:40.732Z,44.40
2022-10-28T20:09:10.090Z,44.70
2022-10-28T20:11:39.396Z,42.63
2022-10-28T20:14:11.886Z,41.17
2022-10-28T20:16:46.061Z,40.85
2022-10-28T20:19:13.431Z,41.15
2022-10-28T20:21:40.919Z,39.25
2022-10-28T20:24:08.791Z,38.63
2022-10-28T20:26:38.497Z,39.22
2022-10-28T20:29:09.996Z,37.13
2022-10-28T20:31:39.133Z,35.22
2022-10-28T20:34:08.613Z,36.63
2022-10-28T20:36:44.660Z,36.13
2022-10-28T20:39:22.911Z,34.60
2022-10-28T20:41:51.366Z,32.05
2022-10-28T20:46:48.128Z,32.03
2022-10-28T20:49:15.994Z,33.38
2022-10-28T20:51:43.351Z,32.60
2022-10-28T20:54:10.843Z,34.15
2022-10-28T20:56:40.470Z,34.70
2022-10-28T20:59:08.346Z,33.28
2022-10-28T21:01:38.868Z,32.75
2022-10-28T21:04:10.838Z,31.02
2022-10-28T21:06:40.747Z,30.38
2022-10-28T21:09:08.932Z,31.85
2022-10-28T21:11:37.440Z,32.92
2022-10-28T21:14:04.651Z,32.58
2022-10-28T21:16:32.294Z,34.08
2022-10-28T21:19:00.204Z,35.00
2022-10-28T21:21:30.035Z,36.22
2022-10-28T21:23:57.454Z,36.35
2022-10-28T21:26:26.745Z,35.33
2022-10-28T21:28:54.124Z,37.15
2022-10-28T21:31:22.254Z,37.13
2022-10-28T21:36:20.252Z,36.92
2022-10-28T21:38:48.034Z,35.97
2022-10-28T21:41:18.804Z,38.55
2022-10-28T21:43:49.527Z,34.95
2022-10-28T21:46:19.405Z,38.22
2022-10-28T21:48:47.544Z,36.85
2022-10-28T21:51:16.937Z,38.10
2022-10-28T21:53:45.131Z,36.28
2022-10-28T21:56:20.306Z,36.35
2022-10-28T21:58:49.970Z,37.92
2022-10-28T22:01:23.950Z,37.65
2022-10-28T22:03:55.173Z,36.95
2022-10-28T22:06:23.106Z,38.95
2022-10-28T22:08:55.871Z,39.40
2022-10-28T22:11:24.254Z,38.15
2022-10-28T22:19:01.957Z,36.67
2022-10-28T22:21:33.603Z,38.85
2022-10-28T22:24:01.212Z,38.58
2022-10-28T22:26:31.944Z,38.70
2022-10-28T22:29:00.424Z,38.30
2022-10-28T22:34:00.498Z,38.45
2022-10-28T22:36:30.217Z,36.65
2022-10-28T22:38:58.161Z,38.03
2022-10-28T22:41:29.011Z,38.08
2022-10-28T22:43:59.595Z,37.38
2022-10-28T22:46:31.892Z,40.08
2022-10-28T22:49:00.740Z,38.15
2022-10-28T22:51:27.971Z,38.90
2022-10-28T22:53:55.313Z,40.13
2022-10-28T22:56:25.187Z,39.22
2022-10-28T22:58:58.374Z,39.63
2022-10-28T23:01:28.675Z,40.00
2022-10-28T23:03:56.845Z,40.45
2022-10-28T23:06:27.481Z,39.90
2022-10-28T23:08:55.412Z,38.60
2022-10-28T23:11:23.598Z,40.58
2022-10-28T23:13:52.915Z,42.53
2022-10-28T23:16:22.130Z,39.85
2022-10-28T23:18:49.988Z,40.83
2022-10-28T23:21:23.842Z,40.00
2022-10-28T23:23:59.464Z,41.70
2022-10-28T23:26:29.628Z,39.92
2022-10-28T23:28:59.521Z,40.47
2022-10-28T23:31:27.875Z,43.08
2022-10-28T23:36:23.574Z,42.33
2022-10-28T23:38:51.545Z,41.97
2022-10-28T23:41:21.006Z,43.33
2022-10-28T23:43:49.480Z,43.70
2022-10-28T23:48:44.480Z,43.35
2022-10-28T23:51:12.006Z,45.30
2022-10-28T23:53:39.349Z,45.50
2022-10-28T23:56:07.557Z,48.65
2022-10-28T23:58:34.819Z,47.80
